sensor_id;sensor_type;location;lat;lon;timestamp;temperature;humidity
8400;DHT22;4237;47.030;15.396;2024-01-15T00:01:43;-3.80;99.90
8400;DHT22;4237;47.030;15.396;2024-01-15T00:04:12;-4.70;99.90
8400;DHT22;4237;47.030;15.396;2024-01-15T00:06:40;-4.70;99.90
8400;DHT22;4237;47.030;15.396;2024-01-15T00:09:09;-4.80;99.90
8400;DHT22;4237;47.030;15.396;2024-01-15T00:11:38;-4.90;99.90
8400;DHT22;4237;47.030;15.396;2024-01-15T00:14:06;-4.80;99.90
8400;DHT22;4237;47.030;15.396;2024-01-15T00:16:35;-4.80;99.90
8400;DHT22;4237;47.030;15.396;2024-01-15T00:19:03;-4.80;99.90
8400;DHT22;4237;47.030;15.396;2024-01-15T00:21:32;-4.80;99.90
8400;DHT22;4237;47.030;15.396;2024-01-15T00:24:01;-4.70;99.90
8400;DHT22;4237;47.030;15.396;2024-01-15T00:26:30;-4.80;99.90
8400;DHT22;4237;47.030;15.396;2024-01-15T00:28:58;-4.80;99.90
8400;DHT22;4237;47.030;15.396;2024-01-15T00:31:27;-4.90;99.90
8400;DHT22;4237;47.030;15.396;2024-01-15T00:33:57;-4.90;99.90
8400;DHT22;4237;47.030;15.396;2024-01-15T00:36:25;-4.90;99.90
8400;DHT22;4237;47.030;15.396;2024-01-15T00:38:54;-4.80;99.90
8400;DHT22;4237;47.030;15.396;2024-01-15T00:41:23;-4.80;99.90
8400;DHT22;4237;47.030;15.396;2024-01-15T00:43:51;-4.70;99.90
8400;DHT22;4237;47.030;15.396;2024-01-15T00:46:20;-4.60;99.90
8400;DHT22;4237;47.030;15.396;2024-01-15T00:48:48;-4.20;99.90
8400;DHT22;4237;47.030;15.396;2024-01-15T00:51:17;-4.70;99.90
8400;DHT22;4237;47.030;15.396;2024-01-15T00:53:45;-4.70;99.90
8400;DHT22;4237;47.030;15.396;2024-01-15T00:56:14;-4.70;99.90
8400;DHT22;4237;47.030;15.396;2024-01-15T00:58:42;-4.60;99.90
8400;DHT22;4237;47.030;15.396;2024-01-15T01:01:11;-4.70;99.90
8400;DHT22;4237;47.030;15.396;2024-01-15T01:03:40;-4.30;99.90
8400;DHT22;4237;47.030;15.396;2024-01-15T01:06:08;-4.90;99.90
8400;DHT22;4237;47.030;15.396;2024-01-15T01:08:46;-5.00;99.90
8400;DHT22;4237;47.030;15.396;2024-01-15T01:11:15;-5.00;99.90
8400;DHT22;4237;47.030;15.396;2024-01-15T01:13:44;-5.10;99.90
8400;DHT22;4237;47.030;15.396;2024-01-15T01:16:12;-5.10;99.90
8400;DHT22;4237;47.030;15.396;2024-01-15T01:18:41;-5.20;99.90
8400;DHT22;4237;47.030;15.396;2024-01-15T01:21:10;-5.30;99.90
8400;DHT22;4237;47.030;15.396;2024-01-15T01:23:38;-5.20;99.90
8400;DHT22;4237;47.030;15.396;2024-01-15T01:26:07;-5.20;99.90
8400;DHT22;4237;47.030;15.396;2024-01-15T01:28:35;-5.20;99.90
8400;DHT22;4237;47.030;15.396;2024-01-15T01:31:04;-5.10;99.90
8400;DHT22;4237;47.030;15.396;2024-01-15T01:33:32;-5.10;99.90
8400;DHT22;4237;47.030;15.396;2024-01-15T01:36:01;-5.10;99.90
8400;DHT22;4237;47.030;15.396;2024-01-15T01:38:32;-5.00;99.90
8400;DHT22;4237;47.030;15.396;2024-01-15T01:41:00;-5.10;99.90
8400;DHT22;4237;47.030;15.396;2024-01-15T01:43:29;-5.20;99.90
8400;DHT22;4237;47.030;15.396;2024-01-15T01:45:58;-5.30;99.90
8400;DHT22;4237;47.030;15.396;2024-01-15T01:48:28;-5.30;99.90
8400;DHT22;4237;47.030;15.396;2024-01-15T01:50:59;-5.40;99.90
8400;DHT22;4237;47.030;15.396;2024-01-15T01:53:29;-5.40;99.90
8400;DHT22;4237;47.030;15.396;2024-01-15T01:55:58;-5.40;99.90
8400;DHT22;4237;47.030;15.396;2024-01-15T01:58:27;-5.40;99.90
8400;DHT22;4237;47.030;15.396;2024-01-15T02:00:56;-5.40;99.90
8400;DHT22;4237;47.030;15.396;2024-01-15T02:03:27;-5.30;99.90
8400;DHT22;4237;47.030;15.396;2024-01-15T02:05:56;-5.40;99.90
8400;DHT22;4237;47.030;15.396;2024-01-15T02:08:26;-5.30;99.90
8400;DHT22;4237;47.030;15.396;2024-01-15T02:10:54;-5.20;99.90
8400;DHT22;4237;47.030;15.396;2024-01-15T02:13:23;-5.10;99.90
8400;DHT22;4237;47.030;15.396;2024-01-15T02:15:51;-5.10;99.90
8400;DHT22;4237;47.030;15.396;2024-01-15T02:18:20;-5.10;99.90
8400;DHT22;4237;47.030;15.396;2024-01-15T02:20:49;-5.10;99.90
8400;DHT22;4237;47.030;15.396;2024-01-15T02:23:17;-4.90;99.90
8400;DHT22;4237;47.030;15.396;2024-01-15T02:25:47;-4.90;99.90
8400;DHT22;4237;47.030;15.396;2024-01-15T02:28:17;-4.80;99.90
8400;DHT22;4237;47.030;15.396;2024-01-15T02:30:46;-4.90;99.90
8400;DHT22;4237;47.030;15.396;2024-01-15T02:33:14;-4.90;99.90
8400;DHT22;4237;47.030;15.396;2024-01-15T02:35:43;-5.00;99.90
8400;DHT22;4237;47.030;15.396;2024-01-15T02:38:13;-5.10;99.90
8400;DHT22;4237;47.030;15.396;2024-01-15T02:40:44;-5.10;99.90
8400;DHT22;4237;47.030;15.396;2024-01-15T02:43:12;-5.20;99.90
8400;DHT22;4237;47.030;15.396;2024-01-15T02:45:41;-5.30;99.90
8400;DHT22;4237;47.030;15.396;2024-01-15T02:48:10;-5.20;99.90
8400;DHT22;4237;47.030;15.396;2024-01-15T02:50:38;-5.30;99.90
8400;DHT22;4237;47.030;15.396;2024-01-15T02:53:07;-5.20;99.90
8400;DHT22;4237;47.030;15.396;2024-01-15T02:55:35;-5.20;99.90
8400;DHT22;4237;47.030;15.396;2024-01-15T02:58:04;-5.20;99.90
8400;DHT22;4237;47.030;15.396;2024-01-15T03:00:33;-5.20;99.90
8400;DHT22;4237;47.030;15.396;2024-01-15T03:03:01;-5.20;99.90
8400;DHT22;4237;47.030;15.396;2024-01-15T03:05:30;-5.20;99.90
8400;DHT22;4237;47.030;15.396;2024-01-15T03:07:59;-5.20;99.90
8400;DHT22;4237;47.030;15.396;2024-01-15T03:10:27;-5.20;99.90
8400;DHT22;4237;47.030;15.396;2024-01-15T03:12:56;-5.10;99.90
8400;DHT22;4237;47.030;15.396;2024-01-15T03:15:25;-5.10;99.90
8400;DHT22;4237;47.030;15.396;2024-01-15T03:17:54;-5.10;99.90
8400;DHT22;4237;47.030;15.396;2024-01-15T03:20:22;-5.00;99.90
8400;DHT22;4237;47.030;15.396;2024-01-15T03:22:51;-5.00;99.90
8400;DHT22;4237;47.030;15.396;2024-01-15T03:25:19;-5.00;99.90
8400;DHT22;4237;47.030;15.396;2024-01-15T03:27:48;-5.00;99.90
8400;DHT22;4237;47.030;15.396;2024-01-15T03:30:16;-5.00;99.90
8400;DHT22;4237;47.030;15.396;2024-01-15T03:32:45;-5.10;99.90
8400;DHT22;4237;47.030;15.396;2024-01-15T03:35:15;-5.10;99.90
8400;DHT22;4237;47.030;15.396;2024-01-15T03:37:44;-5.00;99.90
8400;DHT22;4237;47.030;15.396;2024-01-15T03:40:13;-5.10;99.90
8400;DHT22;4237;47.030;15.396;2024-01-15T03:42:44;-5.20;99.90
8400;DHT22;4237;47.030;15.396;2024-01-15T03:45:12;-5.20;99.90
8400;DHT22;4237;47.030;15.396;2024-01-15T03:47:41;-5.20;99.90
8400;DHT22;4237;47.030;15.396;2024-01-15T03:50:09;-5.20;99.90
8400;DHT22;4237;47.030;15.396;2024-01-15T03:52:38;-5.20;99.90
8400;DHT22;4237;47.030;15.396;2024-01-15T03:55:07;-5.20;99.90
8400;DHT22;4237;47.030;15.396;2024-01-15T03:57:35;-5.20;99.90
8400;DHT22;4237;47.030;15.396;2024-01-15T04:00:05;-5.20;99.90
8400;DHT22;4237;47.030;15.396;2024-01-15T04:02:34;-5.10;99.90
8400;DHT22;4237;47.030;15.396;2024-01-15T04:05:02;-5.10;99.90
8400;DHT22;4237;47.030;15.396;2024-01-15T04:07:31;-5.00;99.90
8400;DHT22;4237;47.030;15.396;2024-01-15T04:10:00;-5.10;99.90
8400;DHT22;4237;47.030;15.396;2024-01-15T04:12:28;-5.20;99.90
8400;DHT22;4237;47.030;15.396;2024-01-15T04:14:57;-5.10;99.90
8400;DHT22;4237;47.030;15.396;2024-01-15T04:17:26;-5.00;99.90
8400;DHT22;4237;47.030;15.396;2024-01-15T04:19:55;-5.00;99.90
8400;DHT22;4237;47.030;15.396;2024-01-15T04:22:25;-5.00;99.90
8400;DHT22;4237;47.030;15.396;2024-01-15T04:24:53;-5.00;99.90
8400;DHT22;4237;47.030;15.396;2024-01-15T04:27:22;-5.00;99.90
8400;DHT22;4237;47.030;15.396;2024-01-15T04:29:50;-5.00;99.90
8400;DHT22;4237;47.030;15.396;2024-01-15T04:32:19;-5.00;99.90
8400;DHT22;4237;47.030;15.396;2024-01-15T04:34:48;-4.90;99.90
8400;DHT22;4237;47.030;15.396;2024-01-15T04:37:16;-4.90;99.90
8400;DHT22;4237;47.030;15.396;2024-01-15T04:39:45;-4.90;99.90
8400;DHT22;4237;47.030;15.396;2024-01-15T04:42:13;-4.90;99.90
8400;DHT22;4237;47.030;15.396;2024-01-15T04:44:42;-5.00;99.90
8400;DHT22;4237;47.030;15.396;2024-01-15T04:47:10;-5.00;99.90
8400;DHT22;4237;47.030;15.396;2024-01-15T04:49:39;-5.00;99.90
8400;DHT22;4237;47.030;15.396;2024-01-15T04:52:08;-4.90;99.90
8400;DHT22;4237;47.030;15.396;2024-01-15T04:54:37;-4.90;99.90
8400;DHT22;4237;47.030;15.396;2024-01-15T04:57:06;-4.80;99.90
8400;DHT22;4237;47.030;15.396;2024-01-15T04:59:34;-4.90;99.90
8400;DHT22;4237;47.030;15.396;2024-01-15T05:02:03;-4.20;99.90
8400;DHT22;4237;47.030;15.396;2024-01-15T05:04:32;-5.00;99.90
8400;DHT22;4237;47.030;15.396;2024-01-15T05:07:00;-4.90;99.90
8400;DHT22;4237;47.030;15.396;2024-01-15T05:09:29;-4.90;99.90
8400;DHT22;4237;47.030;15.396;2024-01-15T05:11:57;-4.90;99.90
8400;DHT22;4237;47.030;15.396;2024-01-15T05:14:26;-4.80;99.90
8400;DHT22;4237;47.030;15.396;2024-01-15T05:16:54;-4.80;99.90
8400;DHT22;4237;47.030;15.396;2024-01-15T05:19:23;-4.90;99.90
8400;DHT22;4237;47.030;15.396;2024-01-15T05:21:51;-5.00;99.90
8400;DHT22;4237;47.030;15.396;2024-01-15T05:24:20;-5.00;99.90
8400;DHT22;4237;47.030;15.396;2024-01-15T05:26:49;-5.00;99.90
8400;DHT22;4237;47.030;15.396;2024-01-15T05:29:17;-5.00;99.90
8400;DHT22;4237;47.030;15.396;2024-01-15T05:31:46;-5.10;99.90
8400;DHT22;4237;47.030;15.396;2024-01-15T05:34:14;-5.10;99.90
8400;DHT22;4237;47.030;15.396;2024-01-15T05:36:43;-5.10;99.90
8400;DHT22;4237;47.030;15.396;2024-01-15T05:39:13;-5.10;99.90
8400;DHT22;4237;47.030;15.396;2024-01-15T05:41:41;-5.10;99.90
8400;DHT22;4237;47.030;15.396;2024-01-15T05:44:10;-5.10;99.90
8400;DHT22;4237;47.030;15.396;2024-01-15T05:46:39;-5.20;99.90
8400;DHT22;4237;47.030;15.396;2024-01-15T05:49:07;-5.20;99.90
8400;DHT22;4237;47.030;15.396;2024-01-15T05:51:36;-5.20;99.90
8400;DHT22;4237;47.030;15.396;2024-01-15T05:54:04;-5.20;99.90
8400;DHT22;4237;47.030;15.396;2024-01-15T05:56:33;-5.30;99.90
8400;DHT22;4237;47.030;15.396;2024-01-15T05:59:02;-5.40;99.90
8400;DHT22;4237;47.030;15.396;2024-01-15T06:01:30;-5.40;99.90
8400;DHT22;4237;47.030;15.396;2024-01-15T06:03:59;-5.50;99.90
8400;DHT22;4237;47.030;15.396;2024-01-15T06:06:27;-5.50;99.90
8400;DHT22;4237;47.030;15.396;2024-01-15T06:08:57;-5.60;99.90
8400;DHT22;4237;47.030;15.396;2024-01-15T06:11:31;-5.60;99.90
8400;DHT22;4237;47.030;15.396;2024-01-15T06:14:00;-5.70;99.90
8400;DHT22;4237;47.030;15.396;2024-01-15T06:16:29;-5.70;99.90
8400;DHT22;4237;47.030;15.396;2024-01-15T06:18:58;-5.70;99.90
8400;DHT22;4237;47.030;15.396;2024-01-15T06:21:26;-5.70;99.90
8400;DHT22;4237;47.030;15.396;2024-01-15T06:23:55;-5.80;99.90
8400;DHT22;4237;47.030;15.396;2024-01-15T06:26:26;-5.80;99.90
8400;DHT22;4237;47.030;15.396;2024-01-15T06:28:55;-5.80;99.90
8400;DHT22;4237;47.030;15.396;2024-01-15T06:31:23;-5.90;99.90
8400;DHT22;4237;47.030;15.396;2024-01-15T06:33:52;-6.00;99.90
8400;DHT22;4237;47.030;15.396;2024-01-15T06:36:20;-6.00;99.90
8400;DHT22;4237;47.030;15.396;2024-01-15T06:38:49;-6.10;99.90
8400;DHT22;4237;47.030;15.396;2024-01-15T06:41:18;-6.10;99.90
8400;DHT22;4237;47.030;15.396;2024-01-15T06:43:46;-6.10;99.90
8400;DHT22;4237;47.030;15.396;2024-01-15T06:46:21;-6.10;99.90
8400;DHT22;4237;47.030;15.396;2024-01-15T06:48:50;-5.90;99.90
8400;DHT22;4237;47.030;15.396;2024-01-15T06:51:19;-5.80;99.90
8400;DHT22;4237;47.030;15.396;2024-01-15T06:53:47;-6.00;99.90
8400;DHT22;4237;47.030;15.396;2024-01-15T06:56:16;-6.00;99.90
8400;DHT22;4237;47.030;15.396;2024-01-15T06:58:44;-6.00;99.90
8400;DHT22;4237;47.030;15.396;2024-01-15T07:01:13;-6.00;99.90
8400;DHT22;4237;47.030;15.396;2024-01-15T07:03:41;-6.00;99.90
8400;DHT22;4237;47.030;15.396;2024-01-15T07:06:11;-6.00;99.90
8400;DHT22;4237;47.030;15.396;2024-01-15T07:08:40;-5.90;99.90
8400;DHT22;4237;47.030;15.396;2024-01-15T07:11:09;-5.90;99.90
8400;DHT22;4237;47.030;15.396;2024-01-15T07:13:38;-5.90;99.90
8400;DHT22;4237;47.030;15.396;2024-01-15T07:16:06;-5.90;99.90
8400;DHT22;4237;47.030;15.396;2024-01-15T07:18:35;-5.80;99.90
8400;DHT22;4237;47.030;15.396;2024-01-15T07:21:04;-5.80;99.90
8400;DHT22;4237;47.030;15.396;2024-01-15T07:23:32;-5.80;99.90
8400;DHT22;4237;47.030;15.396;2024-01-15T07:26:01;-5.60;99.90
8400;DHT22;4237;47.030;15.396;2024-01-15T07:28:30;-5.50;99.90
8400;DHT22;4237;47.030;15.396;2024-01-15T07:30:58;-4.70;99.90
8400;DHT22;4237;47.030;15.396;2024-01-15T07:33:29;-3.10;99.90
8400;DHT22;4237;47.030;15.396;2024-01-15T07:35:57;-1.50;99.90
8400;DHT22;4237;47.030;15.396;2024-01-15T07:38:26;-0.20;99.90
8400;DHT22;4237;47.030;15.396;2024-01-15T07:40:54;0.80;99.90
8400;DHT22;4237;47.030;15.396;2024-01-15T07:43:23;1.90;99.90
8400;DHT22;4237;47.030;15.396;2024-01-15T07:45:51;2.80;99.90
8400;DHT22;4237;47.030;15.396;2024-01-15T07:48:20;3.50;99.90
8400;DHT22;4237;47.030;15.396;2024-01-15T07:50:49;4.50;99.90
8400;DHT22;4237;47.030;15.396;2024-01-15T07:53:17;4.40;99.90
8400;DHT22;4237;47.030;15.396;2024-01-15T07:55:46;4.30;99.90
8400;DHT22;4237;47.030;15.396;2024-01-15T07:58:14;5.00;99.90
8400;DHT22;4237;47.030;15.396;2024-01-15T08:00:43;5.50;99.90
8400;DHT22;4237;47.030;15.396;2024-01-15T08:03:12;5.70;99.90
8400;DHT22;4237;47.030;15.396;2024-01-15T08:05:40;6.30;99.90
8400;DHT22;4237;47.030;15.396;2024-01-15T08:08:09;6.00;99.90
8400;DHT22;4237;47.030;15.396;2024-01-15T08:10:37;6.90;99.90
8400;DHT22;4237;47.030;15.396;2024-01-15T08:13:06;7.60;99.90
8400;DHT22;4237;47.030;15.396;2024-01-15T08:15:36;7.60;99.90
8400;DHT22;4237;47.030;15.396;2024-01-15T08:18:05;8.00;99.90
8400;DHT22;4237;47.030;15.396;2024-01-15T08:20:33;8.20;99.90
8400;DHT22;4237;47.030;15.396;2024-01-15T08:23:02;8.30;99.90
8400;DHT22;4237;47.030;15.396;2024-01-15T08:25:31;9.60;99.90
8400;DHT22;4237;47.030;15.396;2024-01-15T08:27:59;10.10;99.90
8400;DHT22;4237;47.030;15.396;2024-01-15T08:30:28;10.20;99.90
8400;DHT22;4237;47.030;15.396;2024-01-15T08:32:57;11.50;99.90
8400;DHT22;4237;47.030;15.396;2024-01-15T08:35:26;11.80;99.90
8400;DHT22;4237;47.030;15.396;2024-01-15T08:37:55;11.80;99.90
8400;DHT22;4237;47.030;15.396;2024-01-15T08:40:25;11.50;99.90
8400;DHT22;4237;47.030;15.396;2024-01-15T08:42:54;12.00;99.90
8400;DHT22;4237;47.030;15.396;2024-01-15T08:45:22;11.90;99.90
8400;DHT22;4237;47.030;15.396;2024-01-15T08:47:51;13.00;99.90
8400;DHT22;4237;47.030;15.396;2024-01-15T08:50:20;13.10;99.90
8400;DHT22;4237;47.030;15.396;2024-01-15T08:52:48;14.00;99.90
8400;DHT22;4237;47.030;15.396;2024-01-15T08:55:17;13.40;99.90
8400;DHT22;4237;47.030;15.396;2024-01-15T08:57:45;13.30;99.90
8400;DHT22;4237;47.030;15.396;2024-01-15T09:00:14;14.50;99.90
8400;DHT22;4237;47.030;15.396;2024-01-15T09:02:44;14.60;98.90
8400;DHT22;4237;47.030;15.396;2024-01-15T09:05:13;14.50;99.90
8400;DHT22;4237;47.030;15.396;2024-01-15T09:07:42;14.80;98.60
8400;DHT22;4237;47.030;15.396;2024-01-15T09:10:10;15.30;97.80
8400;DHT22;4237;47.030;15.396;2024-01-15T09:12:39;15.70;98.00
8400;DHT22;4237;47.030;15.396;2024-01-15T09:15:08;16.40;97.00
8400;DHT22;4237;47.030;15.396;2024-01-15T09:17:36;16.10;96.00
8400;DHT22;4237;47.030;15.396;2024-01-15T09:20:06;17.40;95.90
8400;DHT22;4237;47.030;15.396;2024-01-15T09:22:34;17.80;94.70
8400;DHT22;4237;47.030;15.396;2024-01-15T09:25:03;17.20;94.70
8400;DHT22;4237;47.030;15.396;2024-01-15T09:27:32;17.60;94.80
8400;DHT22;4237;47.030;15.396;2024-01-15T09:30:02;17.60;95.20
8400;DHT22;4237;47.030;15.396;2024-01-15T09:32:31;17.40;94.70
8400;DHT22;4237;47.030;15.396;2024-01-15T09:35:00;18.50;94.60
8400;DHT22;4237;47.030;15.396;2024-01-15T09:37:28;17.70;94.60
8400;DHT22;4237;47.030;15.396;2024-01-15T09:39:57;18.10;94.70
8400;DHT22;4237;47.030;15.396;2024-01-15T09:42:26;18.30;93.90
8400;DHT22;4237;47.030;15.396;2024-01-15T09:44:55;18.70;94.10
8400;DHT22;4237;47.030;15.396;2024-01-15T09:47:24;18.90;93.60
8400;DHT22;4237;47.030;15.396;2024-01-15T09:49:53;19.00;93.70
8400;DHT22;4237;47.030;15.396;2024-01-15T09:52:22;19.30;93.30
8400;DHT22;4237;47.030;15.396;2024-01-15T09:54:50;19.40;92.70
8400;DHT22;4237;47.030;15.396;2024-01-15T09:57:20;20.30;92.60
8400;DHT22;4237;47.030;15.396;2024-01-15T09:59:49;19.90;93.60
8400;DHT22;4237;47.030;15.396;2024-01-15T10:02:17;20.50;93.90
8400;DHT22;4237;47.030;15.396;2024-01-15T10:04:46;20.80;93.30
8400;DHT22;4237;47.030;15.396;2024-01-15T10:07:16;19.30;93.40
8400;DHT22;4237;47.030;15.396;2024-01-15T10:09:46;19.80;93.70
8400;DHT22;4237;47.030;15.396;2024-01-15T10:12:15;20.40;93.60
8400;DHT22;4237;47.030;15.396;2024-01-15T10:14:44;20.40;93.50
8400;DHT22;4237;47.030;15.396;2024-01-15T10:17:15;20.70;93.30
8400;DHT22;4237;47.030;15.396;2024-01-15T10:19:48;21.10;92.50
8400;DHT22;4237;47.030;15.396;2024-01-15T10:22:16;21.60;92.10
8400;DHT22;4237;47.030;15.396;2024-01-15T10:24:48;21.00;92.70
8400;DHT22;4237;47.030;15.396;2024-01-15T10:27:17;22.00;91.80
8400;DHT22;4237;47.030;15.396;2024-01-15T10:29:45;21.80;90.90
8400;DHT22;4237;47.030;15.396;2024-01-15T10:32:14;21.30;88.10
8400;DHT22;4237;47.030;15.396;2024-01-15T10:34:43;20.70;88.50
8400;DHT22;4237;47.030;15.396;2024-01-15T10:37:11;20.80;88.20
8400;DHT22;4237;47.030;15.396;2024-01-15T10:39:40;21.20;88.40
8400;DHT22;4237;47.030;15.396;2024-01-15T10:42:08;21.90;84.80
8400;DHT22;4237;47.030;15.396;2024-01-15T10:44:37;21.20;84.20
8400;DHT22;4237;47.030;15.396;2024-01-15T10:47:06;21.80;85.20
8400;DHT22;4237;47.030;15.396;2024-01-15T10:49:34;20.80;85.20
8400;DHT22;4237;47.030;15.396;2024-01-15T10:52:03;20.90;84.40
8400;DHT22;4237;47.030;15.396;2024-01-15T10:54:32;22.10;81.60
8400;DHT22;4237;47.030;15.396;2024-01-15T10:57:02;22.90;81.30
8400;DHT22;4237;47.030;15.396;2024-01-15T10:59:32;22.20;81.10
8400;DHT22;4237;47.030;15.396;2024-01-15T11:02:01;22.70;82.20
8400;DHT22;4237;47.030;15.396;2024-01-15T11:04:31;23.00;79.10
8400;DHT22;4237;47.030;15.396;2024-01-15T11:07:01;22.80;79.70
8400;DHT22;4237;47.030;15.396;2024-01-15T11:09:31;21.80;80.80
8400;DHT22;4237;47.030;15.396;2024-01-15T11:12:13;22.10;81.50
8400;DHT22;4237;47.030;15.396;2024-01-15T11:14:50;22.70;81.10
8400;DHT22;4237;47.030;15.396;2024-01-15T11:17:18;20.20;81.80
8400;DHT22;4237;47.030;15.396;2024-01-15T11:19:50;19.10;81.70
8400;DHT22;4237;47.030;15.396;2024-01-15T11:22:48;17.80;83.30
8400;DHT22;4237;47.030;15.396;2024-01-15T11:25:18;16.20;85.70
8400;DHT22;4237;47.030;15.396;2024-01-15T11:27:52;15.80;87.90
8400;DHT22;4237;47.030;15.396;2024-01-15T11:30:24;16.40;87.30
8400;DHT22;4237;47.030;15.396;2024-01-15T11:32:52;16.10;86.60
8400;DHT22;4237;47.030;15.396;2024-01-15T11:35:21;14.70;88.70
8400;DHT22;4237;47.030;15.396;2024-01-15T11:40:38;14.60;90.10
8400;DHT22;4237;47.030;15.396;2024-01-15T11:43:07;15.20;90.60
8400;DHT22;4237;47.030;15.396;2024-01-15T11:45:36;15.80;88.60
8400;DHT22;4237;47.030;15.396;2024-01-15T11:50:46;16.40;87.00
8400;DHT22;4237;47.030;15.396;2024-01-15T11:53:40;16.00;87.10
8400;DHT22;4237;47.030;15.396;2024-01-15T11:55:51;14.90;88.90
8400;DHT22;4237;47.030;15.396;2024-01-15T11:58:21;14.70;89.70
8400;DHT22;4237;47.030;15.396;2024-01-15T12:00:51;15.30;88.40
8400;DHT22;4237;47.030;15.396;2024-01-15T12:03:24;15.10;89.20
8400;DHT22;4237;47.030;15.396;2024-01-15T12:05:52;13.90;91.30
8400;DHT22;4237;47.030;15.396;2024-01-15T12:08:22;13.40;92.90
8400;DHT22;4237;47.030;15.396;2024-01-15T12:10:51;13.00;92.30
8400;DHT22;4237;47.030;15.396;2024-01-15T12:13:20;12.10;94.10
8400;DHT22;4237;47.030;15.396;2024-01-15T12:15:49;12.60;93.60
8400;DHT22;4237;47.030;15.396;2024-01-15T12:18:18;13.00;93.40
8400;DHT22;4237;47.030;15.396;2024-01-15T12:20:47;13.50;93.30
8400;DHT22;4237;47.030;15.396;2024-01-15T12:23:16;14.90;91.70
8400;DHT22;4237;47.030;15.396;2024-01-15T12:25:45;15.90;91.10
8400;DHT22;4237;47.030;15.396;2024-01-15T12:28:15;16.30;90.30
8400;DHT22;4237;47.030;15.396;2024-01-15T12:30:46;16.00;90.80
8400;DHT22;4237;47.030;15.396;2024-01-15T12:33:18;14.80;91.40
8400;DHT22;4237;47.030;15.396;2024-01-15T12:35:48;14.70;91.70
8400;DHT22;4237;47.030;15.396;2024-01-15T12:38:18;14.70;91.70
8400;DHT22;4237;47.030;15.396;2024-01-15T12:40:48;14.30;92.00
8400;DHT22;4237;47.030;15.396;2024-01-15T12:43:17;13.90;92.20
8400;DHT22;4237;47.030;15.396;2024-01-15T12:45:46;13.10;93.10
8400;DHT22;4237;47.030;15.396;2024-01-15T12:48:15;12.50;94.20
8400;DHT22;4237;47.030;15.396;2024-01-15T12:50:45;12.60;94.40
8400;DHT22;4237;47.030;15.396;2024-01-15T12:53:14;12.70;94.10
8400;DHT22;4237;47.030;15.396;2024-01-15T12:55:44;13.50;93.60
8400;DHT22;4237;47.030;15.396;2024-01-15T12:58:13;14.20;93.00
8400;DHT22;4237;47.030;15.396;2024-01-15T13:00:42;15.50;91.90
8400;DHT22;4237;47.030;15.396;2024-01-15T13:03:11;16.20;90.80
8400;DHT22;4237;47.030;15.396;2024-01-15T13:05:41;17.10;90.50
8400;DHT22;4237;47.030;15.396;2024-01-15T13:08:10;18.30;89.80
8400;DHT22;4237;47.030;15.396;2024-01-15T13:10:39;19.20;88.40
8400;DHT22;4237;47.030;15.396;2024-01-15T13:13:09;20.40;86.70
8400;DHT22;4237;47.030;15.396;2024-01-15T13:15:38;20.00;86.80
8400;DHT22;4237;47.030;15.396;2024-01-15T13:18:07;17.80;88.20
8400;DHT22;4237;47.030;15.396;2024-01-15T13:20:35;17.80;89.20
8400;DHT22;4237;47.030;15.396;2024-01-15T13:23:04;17.90;90.00
8400;DHT22;4237;47.030;15.396;2024-01-15T13:25:33;17.90;89.00
8400;DHT22;4237;47.030;15.396;2024-01-15T13:28:04;16.50;90.90
8400;DHT22;4237;47.030;15.396;2024-01-15T13:30:32;16.10;91.00
8400;DHT22;4237;47.030;15.396;2024-01-15T13:33:01;16.50;90.80
8400;DHT22;4237;47.030;15.396;2024-01-15T13:35:31;16.50;90.50
8400;DHT22;4237;47.030;15.396;2024-01-15T13:38:00;17.40;90.70
8400;DHT22;4237;47.030;15.396;2024-01-15T13:40:29;17.80;90.20
8400;DHT22;4237;47.030;15.396;2024-01-15T13:42:57;17.80;89.80
8400;DHT22;4237;47.030;15.396;2024-01-15T13:45:26;18.10;89.50
8400;DHT22;4237;47.030;15.396;2024-01-15T13:47:55;17.30;90.00
8400;DHT22;4237;47.030;15.396;2024-01-15T13:50:23;16.60;90.70
8400;DHT22;4237;47.030;15.396;2024-01-15T13:52:52;17.50;90.40
8400;DHT22;4237;47.030;15.396;2024-01-15T13:55:20;17.00;90.50
8400;DHT22;4237;47.030;15.396;2024-01-15T13:57:49;16.40;91.10
8400;DHT22;4237;47.030;15.396;2024-01-15T14:00:17;14.10;93.20
8400;DHT22;4237;47.030;15.396;2024-01-15T14:02:47;12.40;96.00
8400;DHT22;4237;47.030;15.396;2024-01-15T14:05:16;11.00;99.20
8400;DHT22;4237;47.030;15.396;2024-01-15T14:07:45;9.80;99.90
8400;DHT22;4237;47.030;15.396;2024-01-15T14:10:14;9.10;99.90
8400;DHT22;4237;47.030;15.396;2024-01-15T14:12:43;8.10;99.90
8400;DHT22;4237;47.030;15.396;2024-01-15T14:15:12;7.30;99.90
8400;DHT22;4237;47.030;15.396;2024-01-15T14:17:40;6.80;99.90
8400;DHT22;4237;47.030;15.396;2024-01-15T14:20:09;6.20;99.90
8400;DHT22;4237;47.030;15.396;2024-01-15T14:22:38;5.70;99.90
8400;DHT22;4237;47.030;15.396;2024-01-15T14:25:07;5.40;99.90
8400;DHT22;4237;47.030;15.396;2024-01-15T14:27:36;5.40;99.90
8400;DHT22;4237;47.030;15.396;2024-01-15T14:30:05;5.20;99.90
8400;DHT22;4237;47.030;15.396;2024-01-15T14:32:36;5.00;99.90
8400;DHT22;4237;47.030;15.396;2024-01-15T14:35:05;4.80;99.90
8400;DHT22;4237;47.030;15.396;2024-01-15T14:37:35;4.90;99.90
8400;DHT22;4237;47.030;15.396;2024-01-15T14:40:08;4.70;99.90
8400;DHT22;4237;47.030;15.396;2024-01-15T14:42:38;4.60;99.90
8400;DHT22;4237;47.030;15.396;2024-01-15T14:45:07;4.60;99.90
8400;DHT22;4237;47.030;15.396;2024-01-15T14:47:38;4.60;99.90
8400;DHT22;4237;47.030;15.396;2024-01-15T14:50:07;4.40;99.90
8400;DHT22;4237;47.030;15.396;2024-01-15T14:52:36;4.40;99.90
8400;DHT22;4237;47.030;15.396;2024-01-15T14:55:05;4.30;99.90
8400;DHT22;4237;47.030;15.396;2024-01-15T14:57:33;4.20;99.90
8400;DHT22;4237;47.030;15.396;2024-01-15T15:00:02;4.20;99.90
8400;DHT22;4237;47.030;15.396;2024-01-15T15:02:34;4.10;99.90
8400;DHT22;4237;47.030;15.396;2024-01-15T15:05:03;4.00;99.90
8400;DHT22;4237;47.030;15.396;2024-01-15T15:07:32;4.00;99.90
8400;DHT22;4237;47.030;15.396;2024-01-15T15:10:01;3.90;99.90
8400;DHT22;4237;47.030;15.396;2024-01-15T15:12:29;3.80;99.90
8400;DHT22;4237;47.030;15.396;2024-01-15T15:14:58;3.60;99.90
8400;DHT22;4237;47.030;15.396;2024-01-15T15:17:26;3.40;99.90
8400;DHT22;4237;47.030;15.396;2024-01-15T15:19:55;3.40;99.90
8400;DHT22;4237;47.030;15.396;2024-01-15T15:22:24;3.20;99.90
8400;DHT22;4237;47.030;15.396;2024-01-15T15:24:52;3.10;99.90
8400;DHT22;4237;47.030;15.396;2024-01-15T15:27:22;3.10;99.90
8400;DHT22;4237;47.030;15.396;2024-01-15T15:29:50;3.00;99.90
8400;DHT22;4237;47.030;15.396;2024-01-15T15:32:20;3.00;99.90
8400;DHT22;4237;47.030;15.396;2024-01-15T15:34:48;3.00;99.90
8400;DHT22;4237;47.030;15.396;2024-01-15T15:37:17;3.00;99.90
8400;DHT22;4237;47.030;15.396;2024-01-15T15:39:45;3.00;99.90
8400;DHT22;4237;47.030;15.396;2024-01-15T15:42:14;2.80;99.90
8400;DHT22;4237;47.030;15.396;2024-01-15T15:44:42;2.80;99.90
8400;DHT22;4237;47.030;15.396;2024-01-15T15:47:13;2.80;99.90
8400;DHT22;4237;47.030;15.396;2024-01-15T15:49:44;2.70;99.90
8400;DHT22;4237;47.030;15.396;2024-01-15T15:52:13;2.60;99.90
8400;DHT22;4237;47.030;15.396;2024-01-15T15:54:41;2.60;99.90
8400;DHT22;4237;47.030;15.396;2024-01-15T15:57:10;2.60;99.90
8400;DHT22;4237;47.030;15.396;2024-01-15T15:59:39;2.60;99.90
8400;DHT22;4237;47.030;15.396;2024-01-15T16:02:07;2.50;99.90
8400;DHT22;4237;47.030;15.396;2024-01-15T16:04:36;2.40;99.90
8400;DHT22;4237;47.030;15.396;2024-01-15T16:07:04;2.40;99.90